ENBL/FDE METAR and TAF weather

Enter ICAO airport designator
Station Type Date Time Source
ENBL METAR 2020/02/19 10:50 UTC NOAA

ENBL 191050Z 30002KT 9999 FEW/// SCT010 BKN015 02/01 Q1000


Station Type Date Time Source
ENBL Decoded METAR 2020/02/19 10:50 UTC NOAA

Forde / Bringeland, Norway (ENBL) 61-27N 005-52E
Feb 19, 2020 - 05:50 AM EST / 2020.02.19 1050 UTC
Wind: from the WNW (300 degrees) at 2 MPH (2 KT):0
Visibility: greater than 7 mile(s):0
Sky conditions: mostly cloudy
Temperature: 35 F (2 C)
Dew Point: 33 F (1 C)
Relative Humidity: 93%
Pressure (altimeter): 29.53 in. Hg (1000 hPa)
ob: ENBL 191050Z 30002KT 9999 FEW/// SCT010 BKN015 02/01 Q1000
cycle: 11

Station Type Date Time Source
ENBL TAF UTC NOAA

Error!

Example: see airport list